Time;durP1;ratioP1;P1;durP2;ratioP2;P2;SDS_P1;SDS_P2;PMS_P1;PMS_P2;Temp;Humidity;BMP_temperature;BMP_pressure;BME280_temperature;BME280_humidity;BME280_pressure;Samples;Min_cycle;Max_cycle;Signal;HPM_P1;HPM_P2
2021/07/20 00:00:00;;;;;;;28.70;23.15;;;;;;;22.41;82.84;96217.28;5047190;28;20394;-59
2021/07/20 00:02:42;;;;;;;28.48;21.63;;;;;;;22.62;82.85;96246.66;5046888;28;20055;-59
2021/07/20 00:05:11;;;;;;;31.60;22.48;;;;;;;22.56;82.50;96231.59;5046936;28;20049;-60
2021/07/20 00:07:40;;;;;;;24.20;21.65;;;;;;;22.56;82.25;96231.59;5046758;28;20057;-59
2021/07/20 00:10:13;;;;;;;23.60;21.20;;;;;;;22.60;82.93;96254.81;5046689;28;20059;-62
2021/07/20 00:12:41;;;;;;;25.92;21.98;;;;;;;22.17;83.39;96197.31;5046681;28;20079;-61
2021/07/20 00:15:11;;;;;;;27.58;22.63;;;;;;;22.11;83.37;96196.34;5045223;28;20060;-59
2021/07/20 00:17:42;;;;;;;25.10;22.13;;;;;;;22.37;82.82;96244.84;5043732;28;20135;-60
2021/07/20 00:20:14;;;;;;;24.48;20.92;;;;;;;22.27;82.92;96237.63;5026586;28;20067;-62
2021/07/20 00:22:41;;;;;;;25.80;22.05;;;;;;;22.27;82.94;96249.69;5026983;28;20136;-59
2021/07/20 00:25:10;;;;;;;28.15;21.98;;;;;;;22.25;83.00;96252.19;5025337;28;20124;-62
2021/07/20 00:27:37;;;;;;;29.50;23.10;;;;;;;21.85;83.26;96203.47;5025229;28;20049;-61
2021/07/20 00:30:06;;;;;;;31.55;22.17;;;;;;;22.17;83.34;96250.91;5025104;28;20244;-58
2021/07/20 00:32:33;;;;;;;27.83;21.95;;;;;;;21.83;83.69;96213.66;5026229;28;20053;-61
2021/07/20 00:35:00;;;;;;;25.60;22.88;;;;;;;21.54;84.56;96201.91;5024921;28;20488;-61
2021/07/20 00:37:26;;;;;;;30.65;22.00;;;;;;;21.87;84.79;96248.94;5026169;28;20278;-61
2021/07/20 00:39:53;;;;;;;24.50;21.98;;;;;;;21.26;85.04;96155.88;5026248;28;20064;-61
2021/07/20 00:42:20;;;;;;;26.85;22.23;;;;;;;21.49;85.79;96206.13;5025348;28;20068;-60
2021/07/20 00:44:47;;;;;;;28.42;23.10;;;;;;;21.63;87.50;96247.84;5027052;28;20088;-60
2021/07/20 00:47:15;;;;;;;32.97;23.35;;;;;;;21.65;87.39;96253.81;5026804;28;20447;-60
2021/07/20 00:49:42;;;;;;;24.90;22.30;;;;;;;21.19;87.19;96141.28;5026020;28;20148;-62
2021/07/20 00:52:09;;;;;;;26.65;23.77;;;;;;;21.76;87.20;96228.81;5040568;28;20148;-61
2021/07/20 00:54:36;;;;;;;26.08;23.33;;;;;;;21.71;88.01;96237.06;5024784;28;20065;-60
2021/07/20 00:57:03;;;;;;;27.63;23.60;;;;;;;21.76;87.25;96237.28;5024626;28;20462;-61
2021/07/20 00:59:31;;;;;;;30.63;22.02;;;;;;;21.80;87.65;96240.72;5025799;28;20542;-60
2021/07/20 01:01:57;;;;;;;26.17;23.23;;;;;;;21.72;87.89;96235.81;5024661;28;20140;-61
2021/07/20 01:04:24;;;;;;;28.15;24.45;;;;;;;21.35;88.63;96194.59;5040848;28;20061;-62
2021/07/20 01:06:52;;;;;;;28.90;22.77;;;;;;;21.67;88.80;96237.19;5025523;28;20648;-60
2021/07/20 01:09:21;;;;;;;27.42;23.15;;;;;;;21.31;87.97;96160.91;5025322;28;20448;-61
2021/07/20 01:11:49;;;;;;;26.77;23.58;;;;;;;21.39;89.52;96217.78;5025518;28;20084;-62
2021/07/20 01:14:16;;;;;;;30.48;24.17;;;;;;;21.61;89.88;96221.38;5040792;28;20050;-60
2021/07/20 01:16:44;;;;;;;28.73;24.75;;;;;;;21.84;89.02;96237.78;5025593;28;20057;-60
2021/07/20 01:19:15;;;;;;;26.83;23.90;;;;;;;21.85;88.70;96251.41;5038912;28;20051;-60
2021/07/20 01:21:42;;;;;;;27.77;22.85;;;;;;;21.88;88.49;96244.84;5045602;28;20056;-60
2021/07/20 01:24:15;;;;;;;29.70;25.25;;;;;;;21.83;89.16;96259.53;5043788;28;20299;-60
2021/07/20 01:26:43;;;;;;;32.47;25.13;;;;;;;21.51;90.04;96248.72;5043734;28;20068;-59
2021/07/20 01:29:11;;;;;;;31.52;24.33;;;;;;;21.37;89.82;96254.88;5044775;28;20067;-59
2021/07/20 01:31:41;;;;;;;31.50;24.95;;;;;;;21.43;89.06;96257.91;5042290;28;20055;-62
2021/07/20 01:34:11;;;;;;;29.23;22.63;;;;;;;21.39;86.77;96240.31;5044819;28;20080;-59
2021/07/20 01:36:40;;;;;;;29.27;24.08;;;;;;;21.41;87.76;96258.34;5045346;28;20052;-59
2021/07/20 01:39:11;;;;;;;28.27;23.50;;;;;;;21.42;87.47;96251.47;5043525;28;20060;-61
2021/07/20 01:41:40;;;;;;;25.45;22.65;;;;;;;20.89;86.72;96201.94;5044830;28;20049;-59
2021/07/20 01:44:11;;;;;;;27.13;23.83;;;;;;;21.11;86.90;96235.75;5043325;28;20048;-60
2021/07/20 01:46:39;;;;;;;28.25;22.88;;;;;;;21.33;87.39;96271.13;5045599;28;20139;-60
2021/07/20 01:49:12;;;;;;;27.92;24.13;;;;;;;21.32;88.31;96258.31;5043262;28;20057;-60
2021/07/20 01:51:40;;;;;;;28.57;25.00;;;;;;;21.23;88.67;96261.03;5043296;28;20424;-60
2021/07/20 01:54:08;;;;;;;28.50;24.77;;;;;;;20.83;88.44;96198.91;5042871;28;20690;-61
2021/07/20 01:56:35;;;;;;;27.70;24.20;;;;;;;21.20;88.99;96256.31;5044496;28;20052;-60
2021/07/20 01:59:03;;;;;;;27.20;24.15;;;;;;;20.94;89.25;96233.09;5043073;28;20102;-59
2021/07/20 02:01:35;;;;;;;28.38;23.90;;;;;;;20.86;89.52;96220.56;5044553;28;20061;-60
2021/07/20 02:09:40;;;;;;;28.45;23.90;;;;;;;20.84;89.61;96230.69;5044776;28;20143;-60
2021/07/20 02:12:14;;;;;;;26.50;23.73;;;;;;;21.08;89.73;96265.63;5042810;28;20055;-60
2021/07/20 02:14:42;;;;;;;;;;;;;;;21.11;89.35;96264.72;5043589;28;20045;-60
2021/07/20 02:17:10;;;;;;;26.88;22.38;;;;;;;21.04;89.72;96276.22;5044741;28;19925;-60
2021/07/20 02:19:54;;;;;;;30.20;23.52;;;;;;;20.86;90.56;96262.00;5039489;28;20147;-59
2021/07/20 02:22:25;;;;;;;27.53;24.53;;;;;;;20.85;91.06;96280.09;5039164;28;20049;-60
2021/07/20 02:24:55;;;;;;;31.65;25.23;;;;;;;20.84;91.33;96278.53;5024590;28;20064;-61
2021/07/20 02:27:24;;;;;;;27.88;24.63;;;;;;;20.50;91.39;96213.81;5039196;28;20057;-60
2021/07/20 02:29:54;;;;;;;27.90;24.67;;;;;;;20.71;92.09;96253.25;5022413;28;20053;-60
2021/07/20 02:32:23;;;;;;;30.10;25.60;;;;;;;20.58;90.39;96220.78;5038837;28;20053;-60
2021/07/20 02:34:52;;;;;;;29.05;23.90;;;;;;;20.84;90.94;96278.53;5024207;28;20067;-60
2021/07/20 02:37:21;;;;;;;30.33;24.85;;;;;;;20.87;90.61;96288.88;5022601;28;20504;-60
2021/07/20 02:39:48;;;;;;;29.63;25.30;;;;;;;20.59;90.53;96261.75;5039667;28;20131;-60
2021/07/20 02:42:18;;;;;;;30.33;25.90;;;;;;;20.42;89.78;96229.38;5022910;28;20057;-59
2021/07/20 02:44:46;;;;;;;33.13;25.88;;;;;;;20.50;92.13;96292.63;5038982;28;20068;-60
2021/07/20 02:47:13;;;;;;;32.47;27.52;;;;;;;20.29;93.68;96293.31;5039072;28;20064;-61
2021/07/20 02:49:41;;;;;;;32.92;26.85;;;;;;;20.04;92.44;96231.44;5023741;28;20046;-60
2021/07/20 02:52:09;;;;;;;33.60;26.23;;;;;;;20.59;92.39;96301.13;5038288;28;20067;-60
2021/07/20 02:54:37;;;;;;;28.85;23.92;;;;;;;20.65;91.56;96297.31;5024084;28;20151;-61
2021/07/20 02:57:06;;;;;;;26.67;23.13;;;;;;;20.69;90.52;96302.81;5023822;28;20440;-62
2021/07/20 02:59:34;;;;;;;28.75;24.27;;;;;;;20.43;90.57;96259.88;5024092;28;20053;-61
2021/07/20 03:02:03;;;;;;;31.55;23.40;;;;;;;20.03;89.87;96201.78;5023932;28;20057;-60
2021/07/20 03:04:32;;;;;;;26.83;23.80;;;;;;;20.46;88.87;96269.41;5023835;28;20064;-61
2021/07/20 03:07:07;;;;;;;34.70;25.30;;;;;;;20.63;89.42;96308.22;5022915;28;20045;-62
2021/07/20 03:09:35;;;;;;;28.58;24.23;;;;;;;20.53;89.75;96303.72;5021926;28;20093;-60
2021/07/20 03:12:07;;;;;;;32.65;24.08;;;;;;;20.36;91.71;96304.34;5038823;28;20061;-61
2021/07/20 03:14:35;;;;;;;31.42;23.85;;;;;;;20.20;90.17;96251.03;5023830;28;20064;-60
2021/07/20 03:17:04;;;;;;;31.63;23.85;;;;;;;20.71;89.07;96305.94;5038821;28;20061;-61
2021/07/20 03:19:33;;;;;;;27.10;24.20;;;;;;;20.41;89.25;96272.81;5038850;28;20061;-61
2021/07/20 03:22:12;;;;;;;30.75;23.77;;;;;;;20.47;88.67;96282.28;5041802;28;20063;-60
2021/07/20 03:24:42;;;;;;;30.90;23.80;;;;;;;20.74;88.46;96319.09;5041739;28;20087;-60
2021/07/20 03:27:11;;;;;;;25.70;21.55;;;;;;;20.72;88.65;96330.06;5058413;28;20049;-61
2021/07/20 03:29:44;;;;;;;25.83;22.45;;;;;;;20.68;88.60;96320.94;5043569;28;20053;-59
2021/07/20 03:32:13;;;;;;;26.75;22.70;;;;;;;20.44;88.58;96278.31;5041841;28;20143;-59
2021/07/20 03:34:41;;;;;;;34.88;23.52;;;;;;;20.39;88.82;96276.06;5042068;28;20061;-62
2021/07/20 03:37:09;;;;;;;31.63;23.42;;;;;;;20.13;88.55;96223.09;5041521;28;20041;-59
2021/07/20 03:39:37;;;;;;;29.23;23.80;;;;;;;20.63;87.50;96290.53;5042631;28;20072;-61
2021/07/20 03:42:05;;;;;;;28.33;23.35;;;;;;;20.80;87.22;96300.41;5041376;28;20053;-60
2021/07/20 03:44:32;;;;;;;25.58;22.50;;;;;;;20.69;87.39;96280.28;5042609;28;20045;-61
2021/07/20 03:47:00;;;;;;;26.17;22.63;;;;;;;20.66;86.78;96255.88;5042418;28;20432;-60
2021/07/20 03:49:28;;;;;;;25.17;20.80;;;;;;;20.82;86.68;96292.28;5041294;28;20167;-60
2021/07/20 03:51:59;;;;;;;29.63;22.02;;;;;;;20.52;86.22;96200.06;5042905;28;20057;-61
2021/07/20 03:54:30;;;;;;;22.25;19.45;;;;;;;21.13;85.28;96310.13;5042681;28;20052;-61
2021/07/20 03:56:58;;;;;;;25.35;21.00;;;;;;;21.25;85.43;96343.06;5042645;28;20053;-62
2021/07/20 03:59:28;;;;;;;28.58;22.02;;;;;;;20.99;84.22;96274.03;5041136;28;20064;-60
2021/07/20 04:01:58;;;;;;;27.30;20.55;;;;;;;21.42;83.92;96329.59;5042823;28;20049;-60
2021/07/20 04:04:28;;;;;;;28.60;21.48;;;;;;;21.18;83.84;96289.03;5042572;28;20515;-60
2021/07/20 04:06:58;;;;;;;25.25;20.55;;;;;;;21.21;83.96;96297.34;5042836;28;20056;-59
2021/07/20 04:09:25;;;;;;;31.33;20.55;;;;;;;21.66;83.63;96339.94;5043138;28;20439;-61
2021/07/20 04:11:53;;;;;;;30.95;25.08;;;;;;;21.51;83.62;96338.09;5042348;28;20052;-62
2021/07/20 04:14:20;;;;;;;28.65;24.85;;;;;;;21.51;83.57;96321.19;5042377;28;20565;-61
2021/07/20 04:16:47;;;;;;;28.90;23.52;;;;;;;21.56;84.46;96341.09;5041427;28;20057;-61
2021/07/20 04:19:15;;;;;;;31.52;25.45;;;;;;;21.53;84.56;96330.75;5030263;28;20077;-61
2021/07/20 04:21:43;;;;;;;32.75;26.30;;;;;;;21.63;83.70;96329.59;5024890;28;20045;-60
2021/07/20 04:24:11;;;;;;;31.73;24.85;;;;;;;21.84;83.42;96351.38;5024716;28;20084;-62
2021/07/20 04:26:43;;;;;;;27.52;23.52;;;;;;;21.57;82.92;96286.31;5025148;28;20060;-61
2021/07/20 04:29:11;;;;;;;27.08;22.40;;;;;;;21.68;82.13;96292.34;5026984;28;20071;-60
2021/07/20 04:31:40;;;;;;;29.85;23.70;;;;;;;22.18;81.75;96354.06;5026950;28;20060;-61
2021/07/20 04:34:12;;;;;;;27.38;22.63;;;;;;;22.36;80.83;96359.78;5026430;28;20500;-60
2021/07/20 04:36:40;;;;;;;28.13;22.02;;;;;;;22.31;81.02;96363.22;5024819;28;20560;-60
2021/07/20 04:39:10;;;;;;;26.27;23.52;;;;;;;21.88;81.83;96326.63;5025981;28;20053;-62
2021/07/20 04:41:38;;;;;;;29.35;23.63;;;;;;;22.17;83.14;96363.78;5026016;28;20077;-60
2021/07/20 04:44:06;;;;;;;28.60;24.08;;;;;;;22.28;83.11;96366.16;5026067;28;20065;-61
2021/07/20 04:46:34;;;;;;;24.60;22.00;;;;;;;22.55;81.08;96366.31;5024270;28;20547;-61
2021/07/20 04:49:02;;;;;;;28.40;22.33;;;;;;;22.01;81.56;96276.56;5026175;28;20049;-58
2021/07/20 04:51:31;;;;;;;27.95;23.17;;;;;;;22.70;80.97;96367.28;5023880;28;20061;-59
2021/07/20 04:54:04;;;;;;;27.95;23.45;;;;;;;22.83;80.65;96369.97;5024144;28;20056;-59
2021/07/20 04:56:31;;;;;;;25.17;22.45;;;;;;;22.95;80.30;96371.91;5024746;28;20076;-61
2021/07/20 04:58:58;;;;;;;26.40;21.98;;;;;;;22.98;79.52;96359.69;5026057;28;20114;-61
2021/07/20 05:01:25;;;;;;;26.73;21.63;;;;;;;23.23;78.89;96370.69;5025383;28;20504;-61
2021/07/20 05:03:55;;;;;;;25.27;21.63;;;;;;;23.41;77.62;96376.41;5024531;28;20068;-60
2021/07/20 05:06:22;;;;;;;24.48;21.92;;;;;;;23.25;77.29;96329.41;5040731;28;20594;-62
2021/07/20 05:08:51;;;;;;;26.65;21.80;;;;;;;23.36;76.72;96346.69;5024231;28;20053;-61
2021/07/20 05:11:20;;;;;;;24.17;21.33;;;;;;;23.87;76.11;96372.25;5024339;28;20115;-61
2021/07/20 05:13:47;;;;;;;24.42;21.85;;;;;;;24.16;74.41;96374.59;5025798;28;20053;-61
2021/07/20 05:16:14;;;;;;;22.92;20.45;;;;;;;24.34;73.66;96381.00;5040494;28;20053;-62
2021/07/20 05:18:44;;;;;;;23.98;20.63;;;;;;;24.42;72.57;96378.63;5034789;28;20142;-60
2021/07/20 05:21:12;;;;;;;24.40;20.10;;;;;;;24.60;71.48;96387.03;5046313;28;20592;-59
2021/07/20 05:23:40;;;;;;;21.30;19.02;;;;;;;24.57;70.68;96342.66;5043677;28;20055;-63
2021/07/20 05:26:08;;;;;;;24.92;21.20;;;;;;;24.51;70.04;96317.06;5045400;28;20056;-61
2021/07/20 05:28:39;;;;;;;23.48;18.33;;;;;;;25.17;69.10;96380.13;5045015;28;20084;-61
2021/07/20 05:31:06;;;;;;;20.77;18.65;;;;;;;25.30;69.10;96381.47;5044142;28;20056;-60
2021/07/20 05:33:34;;;;;;;20.85;18.67;;;;;;;25.38;68.47;96383.97;5044865;28;20163;-60
2021/07/20 05:36:03;;;;;;;21.92;18.17;;;;;;;25.06;67.93;96306.97;5029224;28;20492;-60
2021/07/20 05:38:30;;;;;;;26.25;19.92;;;;;;;25.69;67.41;96381.53;5024778;28;20489;-61
2021/07/20 05:40:59;;;;;;;22.00;19.77;;;;;;;25.77;67.29;96385.53;5039163;28;20052;-59
2021/07/20 05:43:29;;;;;;;23.35;18.10;;;;;;;25.92;66.10;96372.16;5024804;28;20114;-60
2021/07/20 05:46:01;;;;;;;20.77;18.15;;;;;;;26.12;64.94;96397.84;5023487;28;20210;-60
2021/07/20 05:48:29;;;;;;;24.70;17.02;;;;;;;26.26;64.88;96385.69;5025113;28;20049;-59
2021/07/20 05:51:00;;;;;;;21.65;18.50;;;;;;;26.33;63.75;96397.47;5023251;28;20089;-67
2021/07/20 05:53:29;;;;;;;22.58;17.75;;;;;;;26.53;62.98;96391.06;5024873;28;20057;-59
2021/07/20 05:56:00;;;;;;;19.98;16.60;;;;;;;26.77;61.62;96391.75;5024671;28;20053;-58
2021/07/20 05:58:27;;;;;;;19.83;15.88;;;;;;;26.98;60.97;96389.75;5024531;28;20053;-62
2021/07/20 06:00:59;;;;;;;17.45;15.57;;;;;;;27.09;60.24;96389.91;5024834;28;20061;-68
2021/07/20 06:03:27;;;;;;;18.30;16.35;;;;;;;27.42;58.69;96390.41;5038986;28;20050;-68
2021/07/20 06:05:56;;;;;;;20.17;16.73;;;;;;;26.62;59.90;96369.00;5024558;28;20566;-61
2021/07/20 06:08:25;;;;;;;18.45;15.43;;;;;;;26.22;62.19;96373.75;5024557;28;20290;-68
2021/07/20 06:10:58;;;;;;;20.98;17.00;;;;;;;26.15;62.78;96385.50;5024816;28;20057;-62
2021/07/20 06:13:27;;;;;;;22.23;18.80;;;;;;;26.00;63.51;96391.19;5024900;28;20053;-62
2021/07/20 06:15:55;;;;;;;22.35;17.00;;;;;;;26.45;62.42;96387.06;5025058;28;20049;-66
2021/07/20 06:18:22;;;;;;;20.60;16.17;;;;;;;26.20;61.18;96359.25;5028946;28;20159;-67
2021/07/20 06:20:56;;;;;;;21.73;16.38;;;;;;;26.54;61.00;96389.81;5044364;28;20055;-67
2021/07/20 06:23:25;;;;;;;17.77;15.90;;;;;;;26.32;59.83;96309.91;5044227;28;20086;-69
2021/07/20 06:25:53;;;;;;;18.75;15.32;;;;;;;26.92;58.57;96378.28;5058891;28;20052;-68
2021/07/20 06:28:24;;;;;;;17.63;15.02;;;;;;;27.03;57.76;96352.84;5043915;28;20053;-67
2021/07/20 06:30:52;;;;;;;18.05;14.30;;;;;;;27.48;56.83;96394.09;5026266;28;20053;-68
2021/07/20 06:33:20;;;;;;;15.52;13.90;;;;;;;27.74;55.69;96394.97;5006738;28;20053;-68
2021/07/20 06:35:47;;;;;;;18.08;14.80;;;;;;;27.94;55.58;96387.19;5004642;28;20057;-68
2021/07/20 06:38:22;;;;;;;19.42;15.32;;;;;;;28.22;54.10;96384.63;5004103;28;20141;-65
2021/07/20 06:40:54;;;;;;;19.65;14.75;;;;;;;28.52;53.38;96385.97;5002379;28;20108;-66
2021/07/20 06:43:22;;;;;;;16.10;14.40;;;;;;;29.04;51.54;96343.84;5003870;28;20068;-68
2021/07/20 06:45:50;;;;;;;18.55;14.20;;;;;;;29.68;50.03;96383.94;5002990;28;20054;-69
2021/07/20 06:48:19;;;;;;;14.85;13.38;;;;;;;30.17;49.04;96366.16;5003116;28;20066;-70
2021/07/20 06:50:52;;;;;;;19.00;13.93;;;;;;;30.50;48.04;96374.81;5003943;28;20140;-68
2021/07/20 06:53:20;;;;;;;16.63;14.23;;;;;;;30.55;47.07;96305.41;5004123;28;20057;-69
2021/07/20 06:55:55;;;;;;;15.27;13.68;;;;;;;31.20;45.68;96353.72;5004018;28;20066;-67
2021/07/20 06:58:25;;;;;;;17.05;13.30;;;;;;;30.98;45.28;96312.38;5003564;28;20050;-66
2021/07/20 07:00:54;;;;;;;15.50;13.18;;;;;;;31.39;44.99;96371.91;5019010;28;20053;-68
2021/07/20 07:03:26;;;;;;;17.73;12.85;;;;;;;31.38;45.25;96356.81;5020466;28;20520;-67
2021/07/20 07:05:57;;;;;;;21.13;14.13;;;;;;;31.47;44.68;96362.25;5024013;28;20065;-65
2021/07/20 07:08:24;;;;;;;15.55;14.10;;;;;;;31.31;45.94;96356.56;5023398;28;20062;-66
2021/07/20 07:10:53;;;;;;;17.52;15.60;;;;;;;31.23;45.69;96366.97;5022351;28;20045;-65
2021/07/20 07:13:22;;;;;;;16.75;14.38;;;;;;;31.28;45.30;96369.06;5023113;28;20050;-67
2021/07/20 07:15:50;;;;;;;17.58;13.70;;;;;;;31.14;45.62;96364.41;5023544;28;20151;-67
2021/07/20 07:18:18;;;;;;;16.00;14.40;;;;;;;29.51;49.32;96363.06;5024156;28;20168;-59
2021/07/20 07:20:48;;;;;;;18.65;14.48;;;;;;;28.75;50.13;96318.53;5043301;28;20435;-65
2021/07/20 07:23:16;;;;;;;17.45;15.25;;;;;;;28.97;51.25;96344.31;5043029;28;20048;-65
2021/07/20 07:25:52;;;;;;;17.48;14.93;;;;;;;29.62;49.80;96351.69;5041107;28;20072;-61
2021/07/20 07:28:20;;;;;;;24.25;18.80;;;;;;;29.61;49.86;96358.69;5020089;28;20191;-61
2021/07/20 07:30:50;;;;;;;22.50;15.23;;;;;;;29.48;50.00;96353.44;5010238;28;20060;-67
2021/07/20 07:33:18;;;;;;;18.48;14.15;;;;;;;29.66;49.32;96352.25;5003748;28;20157;-68
2021/07/20 07:35:46;;;;;;;17.73;14.18;;;;;;;29.18;48.78;96257.34;5002229;28;20065;-71
2021/07/20 07:38:16;;;;;;;17.13;14.68;;;;;;;29.87;48.28;96322.22;5003804;28;20057;-65
2021/07/20 07:40:53;;;;;;;15.15;13.68;;;;;;;29.55;49.64;96355.03;5018158;28;20042;-68
2021/07/20 07:43:23;;;;;;;22.25;14.43;;;;;;;29.87;49.15;96367.91;5003357;28;20081;-64
2021/07/20 07:45:52;;;;;;;15.32;13.65;;;;;;;30.17;47.78;96351.09;5003114;28;20058;-65
2021/07/20 07:48:20;;;;;;;14.45;13.15;;;;;;;30.70;46.09;96365.97;5013211;28;20062;-61
2021/07/20 07:50:48;;;;;;;16.17;13.93;;;;;;;29.52;45.75;96165.59;5026063;28;20049;-65
2021/07/20 07:53:15;;;;;;;14.82;13.32;;;;;;;30.82;45.28;96356.13;5004122;28;20561;-66
2021/07/20 07:55:43;;;;;;;15.27;13.20;;;;;;;30.58;46.36;96352.97;5022030;28;20060;-70
2021/07/20 07:58:13;;;;;;;14.85;13.32;;;;;;;29.92;45.53;96284.31;5006557;28;20082;-65
2021/07/20 08:00:41;;;;;;;19.73;15.20;;;;;;;29.30;47.03;96284.63;5006820;28;20061;-63
2021/07/20 08:03:10;;;;;;;16.75;13.32;;;;;;;30.11;45.62;96336.81;5022334;28;20053;-62
2021/07/20 08:05:38;;;;;;;18.65;15.48;;;;;;;30.09;46.13;96359.41;5025053;28;20049;-61
2021/07/20 08:08:08;;;;;;;14.75;13.10;;;;;;;29.53;46.79;96349.06;5026277;28;20509;-63
2021/07/20 08:10:35;;;;;;;14.15;12.85;;;;;;;29.22;47.53;96334.91;5026914;28;20061;-64
2021/07/20 08:13:06;;;;;;;15.55;12.50;;;;;;;29.29;47.41;96323.78;5026762;28;20053;-64
2021/07/20 08:15:34;;;;;;;18.25;14.35;;;;;;;29.44;46.77;96323.59;5025047;28;20057;-65
2021/07/20 08:18:01;;;;;;;14.75;13.15;;;;;;;29.95;46.06;96348.97;5026677;28;20095;-67
2021/07/20 08:20:30;;;;;;;15.05;12.27;;;;;;;30.15;45.01;96348.75;5042625;28;20736;-66
2021/07/20 08:22:57;;;;;;;13.98;12.68;;;;;;;30.21;44.88;96329.56;5045915;28;20057;-65
2021/07/20 08:25:29;;;;;;;14.20;12.55;;;;;;;30.21;44.07;96283.84;5046196;28;20543;-63
2021/07/20 08:28:02;;;;;;;14.20;12.80;;;;;;;31.06;42.60;96351.94;5046532;28;20052;-62
2021/07/20 08:30:34;;;;;;;13.80;12.40;;;;;;;30.69;41.44;96255.75;5028104;28;20195;-63
2021/07/20 08:33:02;;;;;;;14.52;12.73;;;;;;;31.24;40.92;96317.00;5014271;28;20049;-63
2021/07/20 08:35:32;;;;;;;12.95;11.43;;;;;;;31.49;40.87;96321.66;5018931;28;20046;-64
2021/07/20 08:38:12;;;;;;;12.48;11.18;;;;;;;31.91;40.50;96347.00;5031832;28;20075;-61
2021/07/20 08:41:01;;;;;;;15.07;11.70;;;;;;;31.93;39.71;96341.50;5016529;28;20057;-64
2021/07/20 08:44:05;;;;;;;16.08;12.20;;;;;;;31.62;39.90;96339.00;5006222;28;20058;-66
2021/07/20 08:46:37;;;;;;;;;;;;;;;31.37;41.55;96334.44;5006156;28;20060;-63
2021/07/20 08:49:23;;;;;;;15.95;12.20;;;;;;;31.41;40.05;96343.53;5020638;28;20392;-64
2021/07/20 08:52:07;;;;;;;16.48;14.52;;;;;;;30.97;41.32;96309.28;5020716;28;20076;-63
2021/07/20 08:54:42;;;;;;;12.73;11.25;;;;;;;30.80;39.25;96230.00;5020794;28;20057;-63
2021/07/20 08:57:14;;;;;;;15.15;11.57;;;;;;;31.84;38.61;96336.06;5006177;28;20053;-65
2021/07/20 08:59:51;;;;;;;14.23;10.52;;;;;;;31.65;37.24;96292.91;5019671;28;20057;-64
2021/07/20 09:02:27;;;;;;;13.82;11.32;;;;;;;32.03;37.33;96337.00;5025015;28;20560;-65
2021/07/20 09:05:26;;;;;;;11.68;10.63;;;;;;;30.41;35.68;96086.34;5024268;28;20241;-65
2021/07/20 09:08:18;;;;;;;10.95;9.88;;;;;;;31.72;34.99;96325.97;5025779;28;20057;-67
2021/07/20 09:10:53;;;;;;;11.93;10.32;;;;;;;31.90;35.30;96322.53;5023992;28;20057;-67
2021/07/20 09:13:29;;;;;;;11.10;9.93;;;;;;;32.03;35.03;96314.06;5024209;28;20064;-67
2021/07/20 09:16:08;;;;;;;12.00;9.40;;;;;;;32.15;35.34;96324.19;5022919;28;20137;-65
2021/07/20 09:18:54;;;;;;;14.75;10.15;;;;;;;32.55;35.15;96322.63;5026093;28;20046;-62
2021/07/20 09:21:27;;;;;;;13.50;11.07;;;;;;;32.83;36.63;96318.19;5045226;28;20053;-63
2021/07/20 09:24:08;;;;;;;12.87;11.20;;;;;;;32.45;36.83;96224.66;5021351;28;20053;-60
2021/07/20 09:26:47;;;;;;;13.07;11.77;;;;;;;32.95;36.54;96290.94;5023744;28;20555;-65
2021/07/20 09:29:23;;;;;;;16.48;11.52;;;;;;;33.33;36.28;96309.84;5040142;28;20497;-62
2021/07/20 09:32:06;;;;;;;15.43;12.05;;;;;;;33.77;35.56;96307.78;5005661;28;20064;-62
2021/07/20 09:34:48;;;;;;;13.82;11.38;;;;;;;32.98;36.00;96301.34;5005334;28;20057;-64
2021/07/20 09:37:48;;;;;;;14.63;12.20;;;;;;;31.40;39.62;96313.34;5005499;28;20531;-64
2021/07/20 09:40:39;;;;;;;14.10;10.75;;;;;;;32.72;36.52;96312.56;5005141;28;20763;-66
2021/07/20 09:43:26;;;;;;;11.50;10.52;;;;;;;33.36;35.78;96313.72;5005410;28;20429;-63
2021/07/20 09:46:00;;;;;;;13.35;10.55;;;;;;;33.56;34.28;96310.41;5020303;28;20058;-64
2021/07/20 09:48:52;;;;;;;13.75;11.25;;;;;;;33.68;35.31;96306.84;5019360;28;20054;-62
2021/07/20 09:51:41;;;;;;;12.38;11.15;;;;;;;33.84;33.83;96316.56;5004601;28;20573;-64
2021/07/20 09:54:32;;;;;;;12.55;11.30;;;;;;;33.49;35.43;96306.03;5019243;28;20062;-64
2021/07/20 09:57:11;;;;;;;10.65;9.65;;;;;;;33.82;34.38;96298.28;5017511;28;20467;-65
2021/07/20 09:59:48;;;;;;;14.00;12.35;;;;;;;33.97;33.90;96310.13;5017849;28;20054;-65
2021/07/20 10:02:33;;;;;;;13.45;11.25;;;;;;;34.16;33.27;96293.66;5017590;28;20081;-64
2021/07/20 10:05:17;;;;;;;12.93;11.85;;;;;;;34.63;33.34;96286.88;5003483;28;20145;-66
2021/07/20 10:07:59;;;;;;;20.90;16.02;;;;;;;34.00;33.99;96297.53;5018589;28;20129;-65
2021/07/20 10:10:33;;;;;;;12.70;11.50;;;;;;;34.09;33.54;96266.28;5004192;28;20137;-65
2021/07/20 10:13:24;;;;;;;14.15;12.75;;;;;;;33.55;34.63;96295.25;5020003;28;20137;-65
2021/07/20 10:16:47;;;;;;;14.27;12.32;;;;;;;32.89;35.51;96293.09;5004127;28;20086;-65
2021/07/20 10:19:43;;;;;;;18.20;14.07;;;;;;;33.07;35.50;96292.38;4988756;28;20464;-65
2021/07/20 10:22:13;;;;;;;16.00;14.18;;;;;;;32.38;39.04;96293.28;5041879;28;20075;-64
2021/07/20 10:25:27;;;;;;;15.30;13.65;;;;;;;32.39;40.25;96287.00;5041913;28;20080;-64
2021/07/20 10:28:02;;;;;;;16.23;14.30;;;;;;;32.23;41.68;96293.63;5058638;28;20470;-65
2021/07/20 10:30:34;;;;;;;15.27;13.73;;;;;;;31.06;41.73;96209.63;5044031;28;20057;-63
2021/07/20 10:33:21;;;;;;;16.88;15.18;;;;;;;30.42;44.35;96270.84;5043969;28;20432;-63
2021/07/20 10:35:57;;;;;;;15.98;14.27;;;;;;;30.35;44.52;96231.34;5042202;28;20111;-62
2021/07/20 10:38:59;;;;;;;15.93;14.40;;;;;;;31.20;43.08;96276.44;5043615;28;20065;-63
2021/07/20 10:41:35;;;;;;;20.48;18.48;;;;;;;31.80;42.23;96272.53;5042372;28;20114;-63
2021/07/20 10:44:10;;;;;;;18.15;15.13;;;;;;;29.88;43.53;96103.84;5043574;28;20095;-61
2021/07/20 10:46:41;;;;;;;14.80;13.18;;;;;;;31.80;42.15;96289.72;5042253;28;20049;-61
2021/07/20 10:49:21;;;;;;;17.98;15.07;;;;;;;32.01;41.55;96207.81;5043549;28;20057;-61
2021/07/20 10:51:55;;;;;;;15.77;13.82;;;;;;;32.79;39.87;96243.09;5042192;28;20072;-62
2021/07/20 10:54:28;;;;;;;19.23;12.82;;;;;;;33.36;38.34;96239.84;5043958;28;20498;-62
2021/07/20 10:56:59;;;;;;;19.75;15.73;;;;;;;33.64;38.12;96266.13;5042397;28;20055;-64
2021/07/20 11:00:03;;;;;;;13.95;12.45;;;;;;;33.95;37.72;96267.56;5043349;28;20057;-64
2021/07/20 11:02:56;;;;;;;13.98;12.68;;;;;;;34.22;36.95;96256.94;5043532;28;20063;-64
2021/07/20 11:05:26;;;;;;;15.57;14.03;;;;;;;33.67;36.86;96236.28;5043140;28;20150;-62
2021/07/20 11:08:02;;;;;;;14.63;13.02;;;;;;;34.02;36.91;96260.41;5041845;28;20360;-62
2021/07/20 11:10:36;;;;;;;17.40;14.30;;;;;;;33.98;36.52;96262.81;5042227;28;20057;-63
2021/07/20 11:13:14;;;;;;;24.35;18.08;;;;;;;33.48;37.56;96229.78;5041634;28;20059;-62
2021/07/20 11:15:51;;;;;;;16.92;15.15;;;;;;;33.53;37.84;96259.75;5043094;28;20534;-63
2021/07/20 11:18:18;;;;;;;28.67;20.35;;;;;;;33.73;37.89;96267.84;5042024;28;20052;-62
2021/07/20 11:20:45;;;;;;;16.65;14.98;;;;;;;33.18;38.57;96269.28;5038844;28;20140;-63
2021/07/20 11:23:15;;;;;;;16.35;14.82;;;;;;;31.95;41.24;96264.38;5023180;28;20508;-62
2021/07/20 11:25:42;;;;;;;15.77;14.15;;;;;;;32.27;40.19;96239.63;5038075;28;20053;-63
2021/07/20 11:28:10;;;;;;;16.73;14.23;;;;;;;32.14;39.83;96207.94;5037092;28;20463;-62
2021/07/20 11:30:40;;;;;;;15.45;13.68;;;;;;;32.80;39.42;96256.09;5038075;28;20467;-63
2021/07/20 11:33:14;;;;;;;16.38;14.68;;;;;;;32.01;40.34;96242.22;5037774;28;20136;-62
2021/07/20 11:35:56;;;;;;;15.45;13.98;;;;;;;32.60;39.36;96213.53;5023237;28;20092;-63
2021/07/20 11:38:26;;;;;;;15.05;13.45;;;;;;;31.69;38.96;96054.91;5038455;28;20416;-62
2021/07/20 11:41:04;;;;;;;15.43;13.25;;;;;;;32.90;39.13;96214.28;5021896;28;20049;-63
2021/07/20 11:44:11;;;;;;;15.18;13.55;;;;;;;33.47;38.70;96245.47;5023164;28;20504;-63